Time;durP1;ratioP1;P1;durP2;ratioP2;P2;SDS_P1;SDS_P2;PMS_P1;PMS_P2;Temp;Humidity;BMP_temperature;BMP_pressure;BME280_temperature;BME280_humidity;BME280_pressure;Samples;Min_cycle;Max_cycle;Signal;HPM_P1;HPM_P2
2023/08/01 00:00:30;;;;;;;0.60;0.10;;;16.00;99.90;;;;;;4988225;28;20050;-64
2023/08/01 00:02:56;;;;;;;0.40;0.20;;;16.00;99.90;;;;;;4986455;28;20146;-64
2023/08/01 00:05:22;;;;;;;0.80;0.20;;;16.00;99.90;;;;;;4984796;28;20133;-63
2023/08/01 00:07:48;;;;;;;0.20;0.20;;;16.00;99.90;;;;;;4985650;28;20507;-64
2023/08/01 00:10:16;;;;;;;0.95;0.40;;;16.00;99.90;;;;;;4976088;28;20339;-64
2023/08/01 00:12:42;;;;;;;0.60;0.40;;;16.00;99.90;;;;;;4984055;28;20439;-64
2023/08/01 00:15:08;;;;;;;0.98;0.30;;;16.00;99.90;;;;;;4982428;28;20479;-64
2023/08/01 00:17:34;;;;;;;0.60;0.40;;;16.00;99.90;;;;;;4987039;28;20052;-64
2023/08/01 00:20:04;;;;;;;1.05;0.60;;;16.00;99.90;;;;;;4983502;28;20134;-64
2023/08/01 00:22:30;;;;;;;0.82;0.30;;;16.00;99.90;;;;;;4983633;28;20038;-64
2023/08/01 00:24:55;;;;;;;1.10;0.43;;;15.90;99.90;;;;;;4984486;28;20121;-64
2023/08/01 00:27:21;;;;;;;0.60;0.32;;;15.90;99.90;;;;;;4985408;28;20038;-63
2023/08/01 00:29:47;;;;;;;0.55;0.30;;;15.90;99.90;;;;;;4976075;28;20039;-64
2023/08/01 00:32:13;;;;;;;0.22;0.17;;;15.90;99.90;;;;;;4978156;28;20502;-64
2023/08/01 00:34:38;;;;;;;0.40;0.30;;;15.90;99.90;;;;;;4982275;28;20043;-64
2023/08/01 00:37:05;;;;;;;1.25;0.40;;;15.90;99.90;;;;;;4978489;28;20458;-64
2023/08/01 00:39:31;;;;;;;0.70;0.45;;;15.90;99.90;;;;;;4977927;28;20138;-64
2023/08/01 00:41:57;;;;;;;0.50;0.40;;;15.80;99.90;;;;;;4982161;28;20126;-64
2023/08/01 00:44:23;;;;;;;0.32;0.20;;;15.80;99.90;;;;;;4985780;28;20129;-64
2023/08/01 00:46:49;;;;;;;0.80;0.40;;;15.80;99.90;;;;;;4975723;28;20590;-64
2023/08/01 00:49:15;;;;;;;0.28;0.20;;;15.80;99.90;;;;;;4985691;28;20038;-64
2023/08/01 00:51:42;;;;;;;0.50;0.30;;;15.80;99.90;;;;;;4980627;28;20034;-64
2023/08/01 00:54:08;;;;;;;0.70;0.40;;;15.80;99.90;;;;;;4983389;28;20511;-64
2023/08/01 00:56:34;;;;;;;0.55;0.38;;;15.80;99.90;;;;;;4974198;28;20047;-64
2023/08/01 00:59:00;;;;;;;0.65;0.30;;;15.80;99.90;;;;;;4982701;28;20057;-64
2023/08/01 01:01:26;;;;;;;0.85;0.35;;;15.70;99.90;;;;;;4980219;28;20043;-64
2023/08/01 01:03:52;;;;;;;1.15;0.40;;;15.80;99.90;;;;;;4986198;28;20108;-64
2023/08/01 01:06:31;;;;;;;0.25;0.10;;;15.80;99.90;;;;;;4974390;28;20127;-64
2023/08/01 01:08:57;;;;;;;0.80;0.43;;;15.70;99.90;;;;;;4979759;28;20101;-64
2023/08/01 01:11:22;;;;;;;0.73;0.30;;;15.70;99.90;;;;;;4980598;28;20035;-64
2023/08/01 01:13:48;;;;;;;0.63;0.30;;;15.70;99.90;;;;;;4979772;28;20133;-64
2023/08/01 01:16:14;;;;;;;0.28;0.20;;;15.70;99.90;;;;;;4979706;28;20134;-64
2023/08/01 01:18:41;;;;;;;0.45;0.25;;;15.70;99.90;;;;;;4978727;28;20046;-64
2023/08/01 01:21:06;;;;;;;0.45;0.40;;;15.70;99.90;;;;;;4984140;28;20053;-64
2023/08/01 01:23:33;;;;;;;0.68;0.28;;;15.70;99.90;;;;;;4976206;28;20035;-64
2023/08/01 01:25:59;;;;;;;0.47;0.38;;;15.70;99.90;;;;;;4980857;28;20542;-64
2023/08/01 01:28:26;;;;;;;1.10;0.60;;;15.70;99.90;;;;;;4980574;28;20055;-63
2023/08/01 01:30:53;;;;;;;0.43;0.25;;;15.70;99.90;;;;;;4980648;28;20097;-64
2023/08/01 01:33:19;;;;;;;1.05;0.45;;;15.80;99.90;;;;;;4982934;28;20056;-64
2023/08/01 01:35:44;;;;;;;2.97;0.50;;;15.70;99.90;;;;;;4980216;28;20050;-64
2023/08/01 01:38:10;;;;;;;0.80;0.43;;;15.70;99.90;;;;;;4980277;28;20105;-64
2023/08/01 01:40:36;;;;;;;0.32;0.25;;;15.70;99.90;;;;;;4984756;28;20491;-64
2023/08/01 01:43:02;;;;;;;0.52;0.30;;;15.70;99.90;;;;;;4984025;28;20046;-64
2023/08/01 01:45:28;;;;;;;0.82;0.30;;;15.70;99.90;;;;;;4980704;28;20089;-64
2023/08/01 01:47:54;;;;;;;0.30;0.10;;;15.70;99.90;;;;;;4984891;28;20585;-64
2023/08/01 01:50:19;;;;;;;0.32;0.20;;;15.60;99.90;;;;;;4985639;28;20133;-64
2023/08/01 01:52:46;;;;;;;0.50;0.35;;;15.60;99.90;;;;;;4982850;28;20041;-64
2023/08/01 01:55:12;;;;;;;0.10;0.10;;;15.60;99.90;;;;;;4975764;28;20857;-64
2023/08/01 01:57:37;;;;;;;0.45;0.20;;;15.60;99.90;;;;;;4988179;28;20407;-64
2023/08/01 02:00:10;;;;;;;0.28;0.08;;;15.60;99.90;;;;;;4985904;28;20038;-65
2023/08/01 02:02:36;;;;;;;0.10;0.10;;;15.50;99.90;;;;;;4984520;28;20031;-64
2023/08/01 02:05:03;;;;;;;1.13;0.10;;;15.50;99.90;;;;;;4987193;28;20031;-64
2023/08/01 02:07:29;;;;;;;0.52;0.20;;;15.50;99.90;;;;;;4988267;28;20039;-64
2023/08/01 02:09:55;;;;;;;0.15;0.15;;;15.40;99.90;;;;;;4987237;28;20049;-65
2023/08/01 02:12:21;;;;;;;1.05;0.10;;;15.40;99.90;;;;;;4990730;28;20041;-64
2023/08/01 02:14:46;;;;;;;0.52;0.15;;;15.40;99.90;;;;;;4983375;28;20431;-64
2023/08/01 02:17:12;;;;;;;1.00;0.30;;;15.30;99.90;;;;;;4983864;28;20035;-64
2023/08/01 02:19:38;;;;;;;0.40;0.10;;;15.30;99.90;;;;;;4984935;28;20050;-64
2023/08/01 02:22:04;;;;;;;0.30;0.10;;;15.30;99.90;;;;;;4985625;28;20073;-64
2023/08/01 02:24:30;;;;;;;0.00;0.00;;;15.30;99.90;;;;;;4982915;28;20046;-65
2023/08/01 02:26:56;;;;;;;0.95;0.40;;;15.20;99.90;;;;;;4983265;28;20108;-64
2023/08/01 02:29:21;;;;;;;0.50;0.38;;;15.20;99.90;;;;;;4985894;28;20476;-64
2023/08/01 02:31:47;;;;;;;3.10;0.30;;;15.10;99.90;;;;;;4976124;28;20121;-64
2023/08/01 02:34:13;;;;;;;0.32;0.20;;;15.10;99.90;;;;;;4980129;28;20065;-64
2023/08/01 02:36:40;;;;;;;0.15;0.10;;;15.00;99.90;;;;;;4982828;28;20046;-64
2023/08/01 02:39:06;;;;;;;0.40;0.15;;;15.00;99.90;;;;;;4985067;28;20046;-64
2023/08/01 02:41:32;;;;;;;1.38;0.65;;;14.90;99.90;;;;;;4987608;28;20575;-64
2023/08/01 02:43:58;;;;;;;1.85;0.40;;;14.90;99.90;;;;;;4983233;28;20038;-64
2023/08/01 02:46:23;;;;;;;0.40;0.25;;;14.90;99.90;;;;;;4982554;28;20085;-64
2023/08/01 02:48:49;;;;;;;0.70;0.20;;;14.90;99.90;;;;;;4986263;28;20039;-64
2023/08/01 02:51:15;;;;;;;0.75;0.40;;;14.90;99.90;;;;;;4973158;28;20162;-64
2023/08/01 02:53:41;;;;;;;0.63;0.15;;;15.00;99.90;;;;;;4982520;28;20430;-64
2023/08/01 02:56:09;;;;;;;0.30;0.10;;;15.00;99.90;;;;;;4982777;28;20053;-64
2023/08/01 02:58:35;;;;;;;0.15;0.13;;;15.00;99.90;;;;;;4984964;28;20232;-64
2023/08/01 03:01:06;;;;;;;0.17;0.10;;;15.10;99.90;;;;;;4986526;28;20050;-64
2023/08/01 03:03:32;;;;;;;0.35;0.10;;;15.10;99.90;;;;;;4983934;28;20030;-64
2023/08/01 03:05:59;;;;;;;0.38;0.22;;;15.10;99.90;;;;;;4985725;28;20174;-64
2023/08/01 03:08:25;;;;;;;0.22;0.17;;;15.10;99.90;;;;;;4984944;28;20065;-64
2023/08/01 03:10:51;;;;;;;0.40;0.20;;;15.10;99.90;;;;;;4978477;28;20086;-64
2023/08/01 03:13:16;;;;;;;0.63;0.40;;;15.10;99.90;;;;;;4982022;28;20395;-64
2023/08/01 03:15:42;;;;;;;0.20;0.10;;;15.00;99.90;;;;;;4993870;28;20046;-64
2023/08/01 03:18:08;;;;;;;0.55;0.20;;;15.00;99.90;;;;;;4987466;28;20136;-64
2023/08/01 03:20:33;;;;;;;0.98;0.25;;;15.00;99.90;;;;;;4979485;28;20407;-64
2023/08/01 03:22:59;;;;;;;1.75;0.30;;;15.00;99.90;;;;;;4978753;28;20050;-65
2023/08/01 03:25:25;;;;;;;1.10;0.17;;;15.00;99.90;;;;;;4986584;28;20523;-64
2023/08/01 03:27:50;;;;;;;1.00;0.47;;;15.10;99.90;;;;;;4978494;28;20046;-65
2023/08/01 03:30:16;;;;;;;0.30;0.20;;;15.10;99.90;;;;;;4980313;28;20038;-65
2023/08/01 03:32:42;;;;;;;0.30;0.20;;;15.10;99.90;;;;;;4977966;28;20122;-64
2023/08/01 03:35:08;;;;;;;0.30;0.15;;;15.10;99.90;;;;;;4984035;28;20034;-64
2023/08/01 03:37:33;;;;;;;0.05;0.05;;;15.10;99.90;;;;;;4976205;28;20042;-64
2023/08/01 03:39:59;;;;;;;0.13;0.00;;;15.00;99.90;;;;;;4981345;28;20073;-64
2023/08/01 03:42:25;;;;;;;0.47;0.25;;;15.00;99.90;;;;;;4981643;28;20114;-64
2023/08/01 03:44:51;;;;;;;0.40;0.28;;;14.90;99.90;;;;;;4982859;28;20082;-64
2023/08/01 03:47:16;;;;;;;0.00;0.00;;;14.90;99.90;;;;;;4975640;28;20046;-64
2023/08/01 03:49:42;;;;;;;0.30;0.10;;;14.80;99.90;;;;;;4985278;28;20034;-64
2023/08/01 03:52:08;;;;;;;0.00;0.00;;;14.80;99.90;;;;;;4983082;28;20042;-64
2023/08/01 03:54:34;;;;;;;0.10;0.00;;;14.80;99.90;;;;;;4985307;28;20078;-64
2023/08/01 03:57:00;;;;;;;0.00;0.00;;;14.80;99.90;;;;;;4979687;28;20093;-65
2023/08/01 03:59:26;;;;;;;0.00;0.00;;;14.80;99.90;;;;;;4983248;28;20062;-65
2023/08/01 04:01:52;;;;;;;0.20;0.08;;;14.80;99.90;;;;;;4981012;28;20483;-64
2023/08/01 04:04:17;;;;;;;0.00;0.00;;;14.80;99.90;;;;;;4985325;28;20042;-64
2023/08/01 04:06:43;;;;;;;0.03;0.00;;;14.70;99.90;;;;;;4980659;28;20544;-64
2023/08/01 04:09:09;;;;;;;0.10;0.05;;;14.70;99.90;;;;;;4976792;28;20069;-65
2023/08/01 04:11:34;;;;;;;0.45;0.10;;;14.70;99.90;;;;;;4986995;28;20042;-65
2023/08/01 04:14:00;;;;;;;1.45;0.10;;;14.60;99.90;;;;;;4984581;28;20045;-64
2023/08/01 04:16:26;;;;;;;0.20;0.00;;;14.60;99.90;;;;;;4981302;28;20153;-65
2023/08/01 04:18:51;;;;;;;0.32;0.10;;;14.60;99.90;;;;;;4982351;28;20052;-64
2023/08/01 04:21:18;;;;;;;0.00;0.00;;;14.50;99.90;;;;;;4982858;28;20121;-64
2023/08/01 04:23:44;;;;;;;0.20;0.10;;;14.50;99.90;;;;;;4996485;28;20402;-65
2023/08/01 04:26:09;;;;;;;0.20;0.00;;;14.50;99.90;;;;;;4984215;28;20059;-64
2023/08/01 04:28:35;;;;;;;0.00;0.00;;;14.50;99.90;;;;;;4985876;28;20121;-64
2023/08/01 04:31:01;;;;;;;0.08;0.00;;;14.50;99.90;;;;;;4982602;28;20093;-64
2023/08/01 04:33:27;;;;;;;0.00;0.00;;;14.50;99.90;;;;;;4985373;28;20109;-65
2023/08/01 04:35:53;;;;;;;0.63;0.15;;;14.50;99.90;;;;;;4975831;28;20053;-64
2023/08/01 04:38:19;;;;;;;0.10;0.00;;;14.50;99.90;;;;;;4981059;28;20046;-65
2023/08/01 04:40:45;;;;;;;0.00;0.00;;;14.40;99.90;;;;;;4982357;28;20120;-64
2023/08/01 04:43:12;;;;;;;0.20;0.10;;;14.40;99.90;;;;;;4985669;28;20050;-64
2023/08/01 04:45:37;;;;;;;0.30;0.10;;;14.40;99.90;;;;;;4976306;28;20034;-64
2023/08/01 04:48:03;;;;;;;0.10;0.00;;;14.30;99.90;;;;;;4980031;28;20116;-64
2023/08/01 04:50:29;;;;;;;0.10;0.00;;;14.30;99.90;;;;;;4980070;28;20030;-64
2023/08/01 04:52:55;;;;;;;0.00;0.00;;;14.30;99.90;;;;;;4985914;28;20038;-65
2023/08/01 04:55:20;;;;;;;0.10;0.00;;;14.30;99.90;;;;;;4971659;28;20479;-64
2023/08/01 04:57:46;;;;;;;0.10;0.00;;;14.30;99.90;;;;;;4979085;28;20046;-64
2023/08/01 05:00:12;;;;;;;0.00;0.00;;;14.40;99.90;;;;;;4982566;28;20104;-65
2023/08/01 05:02:38;;;;;;;0.20;0.10;;;14.40;99.90;;;;;;4979085;28;20043;-64
2023/08/01 05:05:04;;;;;;;0.03;0.03;;;14.40;99.90;;;;;;4975986;28;20059;-64
2023/08/01 05:07:30;;;;;;;0.30;0.03;;;14.40;99.90;;;;;;4980186;28;20402;-64
2023/08/01 05:09:56;;;;;;;0.10;0.00;;;14.50;99.90;;;;;;4982772;28;20047;-63
2023/08/01 05:12:21;;;;;;;0.30;0.00;;;14.50;99.90;;;;;;4980843;28;20057;-64
2023/08/01 05:14:47;;;;;;;0.05;0.03;;;14.60;99.90;;;;;;4983764;28;20042;-64
2023/08/01 05:17:13;;;;;;;0.63;0.00;;;14.60;99.90;;;;;;4988568;28;20239;-64
2023/08/01 05:19:39;;;;;;;0.00;0.00;;;14.70;99.90;;;;;;4986764;28;20057;-64
2023/08/01 05:22:05;;;;;;;0.10;0.00;;;14.80;99.90;;;;;;4980544;28;20102;-64
2023/08/01 05:24:31;;;;;;;0.32;0.10;;;14.90;99.90;;;;;;4978546;28;20511;-64
2023/08/01 05:26:56;;;;;;;0.00;0.00;;;14.90;99.90;;;;;;4988378;28;20054;-64
2023/08/01 05:29:22;;;;;;;0.15;0.03;;;15.00;99.90;;;;;;4987177;28;20035;-64
2023/08/01 05:31:48;;;;;;;0.03;0.00;;;15.00;99.90;;;;;;4976220;28;20402;-64
2023/08/01 05:34:13;;;;;;;0.08;0.03;;;15.00;99.90;;;;;;4984762;28;20030;-64
2023/08/01 05:36:39;;;;;;;0.10;0.08;;;15.00;99.90;;;;;;4981421;28;20056;-64
2023/08/01 05:39:05;;;;;;;0.10;0.10;;;15.00;99.90;;;;;;4987179;28;20089;-64
2023/08/01 05:41:31;;;;;;;0.40;0.20;;;15.00;99.90;;;;;;4988054;28;20121;-64
2023/08/01 05:43:58;;;;;;;0.10;0.00;;;15.10;99.90;;;;;;4982973;28;20046;-64
2023/08/01 05:46:24;;;;;;;0.35;0.10;;;15.00;99.90;;;;;;4983621;28;20031;-64
2023/08/01 05:48:49;;;;;;;0.05;0.00;;;15.00;99.90;;;;;;4985271;28;20488;-64
2023/08/01 05:51:15;;;;;;;0.13;0.00;;;15.00;99.90;;;;;;4983807;28;20065;-64
2023/08/01 05:53:41;;;;;;;0.20;0.10;;;15.10;99.90;;;;;;4991651;28;20054;-65
2023/08/01 05:56:06;;;;;;;0.25;0.15;;;15.10;99.90;;;;;;4984474;28;20045;-64
2023/08/01 05:58:32;;;;;;;0.15;0.00;;;15.20;99.90;;;;;;4986453;28;20050;-64
2023/08/01 06:00:58;;;;;;;0.00;0.00;;;15.20;99.90;;;;;;4981184;28;20395;-64
2023/08/01 06:03:24;;;;;;;0.10;0.00;;;15.20;99.90;;;;;;4981251;28;20074;-64
2023/08/01 06:05:49;;;;;;;0.00;0.00;;;15.30;99.90;;;;;;4987422;28;20038;-64
2023/08/01 06:08:15;;;;;;;0.08;0.00;;;15.30;99.90;;;;;;4980828;28;20047;-64
2023/08/01 06:10:42;;;;;;;0.00;0.00;;;15.40;99.90;;;;;;4986661;28;20043;-64
2023/08/01 06:13:08;;;;;;;0.10;0.03;;;15.40;99.90;;;;;;4976757;28;20380;-64
2023/08/01 06:15:34;;;;;;;0.10;0.00;;;15.50;99.90;;;;;;4986131;28;20041;-64
2023/08/01 06:18:00;;;;;;;0.00;0.00;;;15.50;99.90;;;;;;4980539;28;20580;-64
2023/08/01 06:20:25;;;;;;;0.00;0.00;;;15.60;99.90;;;;;;4987666;28;20501;-64
2023/08/01 06:22:51;;;;;;;0.40;0.10;;;15.70;99.90;;;;;;4976960;28;20058;-64
2023/08/01 06:25:17;;;;;;;0.15;0.08;;;15.70;99.90;;;;;;4983050;28;20090;-64
2023/08/01 06:27:43;;;;;;;0.10;0.00;;;15.70;99.90;;;;;;4986517;28;20376;-64
2023/08/01 06:30:09;;;;;;;1.83;0.10;;;15.80;99.90;;;;;;4986897;28;20042;-64
2023/08/01 06:32:35;;;;;;;0.40;0.20;;;15.90;99.90;;;;;;4977450;28;20551;-63
2023/08/01 06:35:01;;;;;;;0.10;0.00;;;15.90;99.90;;;;;;5000106;28;20230;-64
2023/08/01 06:37:27;;;;;;;0.00;0.00;;;15.90;99.90;;;;;;4980609;28;20568;-64
2023/08/01 06:39:54;;;;;;;1.08;0.17;;;15.90;99.90;;;;;;4980751;28;20080;-64
2023/08/01 06:42:19;;;;;;;0.00;0.00;;;15.90;99.90;;;;;;4978781;28;20070;-64
2023/08/01 06:44:46;;;;;;;0.00;0.00;;;15.90;99.90;;;;;;4983854;28;20050;-63
2023/08/01 06:47:12;;;;;;;0.52;0.15;;;16.00;99.90;;;;;;4988116;28;20030;-63
2023/08/01 06:49:37;;;;;;;0.00;0.00;;;16.00;99.90;;;;;;4979171;28;20039;-63
2023/08/01 06:52:03;;;;;;;0.98;0.10;;;16.10;99.90;;;;;;4978329;28;20370;-64
2023/08/01 06:54:29;;;;;;;0.10;0.03;;;16.10;99.90;;;;;;4982842;28;20049;-64
2023/08/01 06:56:55;;;;;;;0.10;0.10;;;16.10;99.90;;;;;;4987478;28;20046;-64
2023/08/01 06:59:20;;;;;;;0.00;0.00;;;16.10;99.90;;;;;;4976988;28;20104;-63
2023/08/01 07:01:46;;;;;;;0.10;0.00;;;16.10;99.90;;;;;;4981821;28;20026;-63
2023/08/01 07:04:13;;;;;;;0.00;0.00;;;16.20;99.90;;;;;;4984027;28;20046;-63
2023/08/01 07:06:40;;;;;;;0.45;0.20;;;16.30;99.90;;;;;;4982800;28;20108;-63
2023/08/01 07:09:06;;;;;;;0.45;0.10;;;16.50;99.90;;;;;;4977011;28;20097;-63
2023/08/01 07:11:32;;;;;;;0.95;0.40;;;16.60;99.90;;;;;;4983311;28;20476;-63
2023/08/01 07:13:58;;;;;;;1.10;0.10;;;16.80;99.90;;;;;;4984237;28;20085;-63
2023/08/01 07:16:23;;;;;;;0.00;0.00;;;16.80;99.90;;;;;;4981166;28;20483;-63
2023/08/01 07:18:50;;;;;;;0.00;0.00;;;17.00;99.90;;;;;;4976286;28;20035;-63
2023/08/01 07:21:16;;;;;;;0.00;0.00;;;17.10;99.90;;;;;;4986682;28;20104;-63
2023/08/01 07:23:43;;;;;;;0.17;0.00;;;17.20;99.90;;;;;;4981768;28;20065;-63
2023/08/01 07:26:09;;;;;;;0.20;0.00;;;17.30;99.90;;;;;;4982334;28;20050;-63
2023/08/01 07:28:35;;;;;;;0.38;0.05;;;17.40;99.90;;;;;;4977170;28;20038;-63
2023/08/01 07:31:04;;;;;;;0.00;0.00;;;17.40;99.90;;;;;;4979921;28;20050;-64
2023/08/01 07:33:29;;;;;;;0.20;0.00;;;17.30;99.90;;;;;;4985146;28;20110;-63
2023/08/01 07:35:55;;;;;;;0.08;0.03;;;17.20;99.90;;;;;;4977782;28;20551;-64
2023/08/01 07:38:21;;;;;;;0.00;0.00;;;17.10;99.90;;;;;;4980664;28;20129;-63
2023/08/01 07:40:46;;;;;;;0.15;0.10;;;17.10;99.90;;;;;;4983091;28;20109;-63
2023/08/01 07:43:12;;;;;;;0.00;0.00;;;17.00;99.90;;;;;;4981712;28;20046;-63
2023/08/01 07:45:38;;;;;;;0.10;0.03;;;17.00;99.90;;;;;;4974600;28;20039;-64
2023/08/01 07:48:04;;;;;;;0.28;0.10;;;17.00;99.90;;;;;;4981903;28;20057;-64
2023/08/01 07:50:30;;;;;;;0.13;0.05;;;16.90;99.90;;;;;;4984030;28;20455;-64
2023/08/01 07:52:56;;;;;;;0.00;0.00;;;16.80;99.90;;;;;;4982116;28;20089;-64
2023/08/01 07:55:22;;;;;;;0.30;0.13;;;16.70;99.90;;;;;;4978352;28;20497;-64
2023/08/01 07:57:48;;;;;;;0.00;0.00;;;16.60;99.90;;;;;;4981915;28;20034;-63
2023/08/01 08:00:14;;;;;;;0.10;0.00;;;16.40;99.90;;;;;;4981249;28;20193;-64
2023/08/01 08:02:41;;;;;;;0.00;0.00;;;16.20;99.90;;;;;;4984413;28;20042;-64
2023/08/01 08:05:08;;;;;;;0.00;0.00;;;16.20;99.90;;;;;;4977102;28;20042;-63
2023/08/01 08:07:34;;;;;;;0.32;0.10;;;16.20;99.90;;;;;;4980509;28;20034;-63
2023/08/01 08:10:00;;;;;;;0.00;0.00;;;16.20;99.90;;;;;;4983799;28;20034;-64
2023/08/01 08:12:25;;;;;;;0.00;0.00;;;16.20;99.90;;;;;;4979542;28;20493;-63
2023/08/01 08:14:51;;;;;;;0.10;0.00;;;16.30;99.90;;;;;;4981869;28;20045;-64
2023/08/01 08:17:17;;;;;;;0.00;0.00;;;16.20;99.90;;;;;;4976559;28;20069;-64
2023/08/01 08:19:42;;;;;;;0.60;0.35;;;16.10;99.90;;;;;;4983939;28;20403;-65
2023/08/01 08:22:08;;;;;;;0.10;0.10;;;16.00;99.90;;;;;;4976208;28;20049;-64
2023/08/01 08:24:34;;;;;;;0.28;0.00;;;15.90;99.90;;;;;;4982706;28;20484;-64
2023/08/01 08:26:59;;;;;;;0.00;0.00;;;15.80;99.90;;;;;;4980044;28;20157;-64
2023/08/01 08:29:25;;;;;;;0.28;0.10;;;15.70;99.90;;;;;;4983910;28;20061;-65
2023/08/01 08:31:51;;;;;;;1.40;0.10;;;15.60;99.90;;;;;;4985571;28;20046;-64
2023/08/01 08:34:17;;;;;;;0.43;0.20;;;15.60;99.90;;;;;;4984978;28;20038;-64
2023/08/01 08:36:42;;;;;;;1.25;0.10;;;15.60;99.90;;;;;;4976841;28;20050;-64
2023/08/01 08:39:08;;;;;;;0.00;0.00;;;15.60;99.90;;;;;;4985263;28;20031;-64
2023/08/01 08:41:47;;;;;;;0.50;0.30;;;15.60;99.90;;;;;;4983875;28;20042;-64
2023/08/01 08:44:22;;;;;;;0.80;0.10;;;15.60;99.90;;;;;;4980061;28;20049;-65
2023/08/01 08:46:55;;;;;;;0.22;0.00;;;15.60;99.90;;;;;;4979534;28;20118;-64
2023/08/01 08:49:21;;;;;;;0.20;0.10;;;15.60;99.90;;;;;;4983464;28;20126;-64
2023/08/01 08:51:48;;;;;;;0.08;0.00;;;15.60;99.90;;;;;;4982308;28;20066;-64
2023/08/01 08:54:16;;;;;;;0.20;0.10;;;15.60;99.90;;;;;;4977475;28;20046;-65
2023/08/01 08:56:42;;;;;;;0.30;0.10;;;15.60;99.90;;;;;;4980534;28;20034;-65
2023/08/01 08:59:11;;;;;;;0.32;0.10;;;15.60;99.90;;;;;;4982879;28;20042;-63
2023/08/01 09:01:38;;;;;;;0.00;0.00;;;15.60;99.90;;;;;;4978646;28;20062;-64
2023/08/01 09:04:05;;;;;;;0.20;0.10;;;15.50;99.90;;;;;;4988060;28;20064;-64
2023/08/01 09:06:34;;;;;;;1.83;0.28;;;15.60;99.90;;;;;;4981124;28;20054;-64
2023/08/01 09:09:04;;;;;;;0.32;0.28;;;15.70;99.90;;;;;;4984655;28;20518;-63
2023/08/01 09:11:44;;;;;;;0.85;0.10;;;15.80;99.90;;;;;;4980386;28;20076;-64
2023/08/01 09:14:10;;;;;;;0.30;0.20;;;15.80;99.90;;;;;;4978852;28;20060;-64
2023/08/01 09:16:35;;;;;;;0.20;0.10;;;15.80;99.90;;;;;;4983837;28;20054;-64
2023/08/01 09:19:02;;;;;;;0.40;0.20;;;15.80;99.90;;;;;;4980790;28;20066;-64
2023/08/01 09:21:35;;;;;;;1.45;0.17;;;15.80;99.90;;;;;;4976178;28;20042;-64
2023/08/01 09:24:11;;;;;;;0.00;0.00;;;15.70;99.90;;;;;;4980129;28;20399;-64
2023/08/01 09:26:37;;;;;;;1.30;0.40;;;15.60;99.90;;;;;;4983657;28;20047;-64
2023/08/01 09:29:03;;;;;;;0.65;0.20;;;15.50;99.90;;;;;;4978077;28;20380;-64
2023/08/01 09:31:30;;;;;;;0.13;0.10;;;15.50;99.90;;;;;;4976294;28;20037;-64
2023/08/01 09:33:56;;;;;;;0.30;0.10;;;15.50;99.90;;;;;;4978856;28;20054;-63
2023/08/01 09:36:23;;;;;;;0.52;0.30;;;15.40;99.90;;;;;;4982573;28;20125;-64
2023/08/01 09:38:49;;;;;;;0.17;0.10;;;15.40;99.90;;;;;;4984304;28;20051;-63
2023/08/01 09:41:19;;;;;;;0.10;0.00;;;15.40;99.90;;;;;;4984601;28;20061;-64
2023/08/01 09:43:46;;;;;;;0.13;0.03;;;15.60;99.90;;;;;;4981006;28;20047;-63
2023/08/01 09:46:13;;;;;;;0.00;0.00;;;15.90;99.90;;;;;;4982241;28;20085;-63
2023/08/01 09:48:39;;;;;;;0.08;0.00;;;16.30;99.90;;;;;;4979339;28;20511;-63
2023/08/01 09:51:10;;;;;;;0.60;0.20;;;16.60;99.90;;;;;;4972285;28;20042;-63
2023/08/01 09:53:47;;;;;;;0.10;0.05;;;16.80;99.90;;;;;;4983359;28;20042;-63
2023/08/01 09:56:16;;;;;;;0.65;0.55;;;16.90;99.90;;;;;;4980276;28;20046;-63
2023/08/01 09:58:43;;;;;;;1.77;0.10;;;17.10;99.90;;;;;;4980415;28;20125;-63
2023/08/01 10:01:08;;;;;;;0.13;0.10;;;17.50;99.90;;;;;;4979873;28;20125;-63
2023/08/01 10:03:34;;;;;;;1.08;0.20;;;18.00;99.90;;;;;;4988315;28;20526;-62
2023/08/01 10:06:01;;;;;;;0.30;0.10;;;18.60;99.90;;;;;;4987962;28;20061;-62
2023/08/01 10:08:29;;;;;;;0.30;0.10;;;18.70;99.90;;;;;;4987631;28;20545;-63
2023/08/01 10:10:56;;;;;;;0.00;0.00;;;18.60;99.90;;;;;;4980769;28;20552;-62
2023/08/01 10:13:24;;;;;;;2.08;0.28;;;18.40;99.90;;;;;;4985215;28;20342;-62
2023/08/01 10:15:51;;;;;;;0.10;0.10;;;18.30;99.90;;;;;;4981218;28;20109;-63
2023/08/01 10:18:18;;;;;;;0.05;0.00;;;18.20;99.90;;;;;;4983095;28;20085;-62
2023/08/01 10:20:44;;;;;;;0.65;0.10;;;18.00;99.90;;;;;;4986467;28;20038;-62
2023/08/01 10:23:11;;;;;;;2.55;0.45;;;17.80;99.90;;;;;;4985527;28;20178;-62
2023/08/01 10:25:38;;;;;;;0.10;0.00;;;17.60;99.90;;;;;;4982963;28;20141;-62
2023/08/01 10:28:06;;;;;;;0.08;0.00;;;17.40;99.90;;;;;;4980743;28;20151;-62
2023/08/01 10:30:31;;;;;;;0.03;0.00;;;17.20;99.90;;;;;;4982961;28;20038;-62
2023/08/01 10:32:59;;;;;;;0.05;0.05;;;17.10;99.90;;;;;;4986352;28;20112;-62
2023/08/01 10:35:33;;;;;;;2.17;0.55;;;17.10;99.90;;;;;;4986783;28;20039;-62
2023/08/01 10:38:11;;;;;;;0.03;0.03;;;17.20;99.90;;;;;;4981714;28;21050;-62
2023/08/01 10:40:39;;;;;;;0.28;0.00;;;17.30;99.90;;;;;;4978320;28;20132;-63
2023/08/01 10:43:05;;;;;;;0.05;0.00;;;17.30;99.90;;;;;;4985564;28;20541;-63
2023/08/01 10:45:31;;;;;;;0.00;0.00;;;17.40;99.90;;;;;;4980563;28;20051;-62
2023/08/01 10:48:10;;;;;;;2.22;0.03;;;17.50;99.90;;;;;;4977539;28;20101;-62
2023/08/01 10:50:36;;;;;;;0.32;0.10;;;17.60;99.90;;;;;;4983847;28;20030;-63
2023/08/01 10:53:07;;;;;;;0.38;0.08;;;17.60;99.90;;;;;;4984288;28;20408;-64
2023/08/01 10:55:45;;;;;;;0.00;0.00;;;17.60;99.90;;;;;;4988059;28;20101;-64
2023/08/01 10:58:11;;;;;;;0.10;0.00;;;17.50;99.90;;;;;;4980982;28;20042;-64
2023/08/01 11:00:36;;;;;;;0.20;0.00;;;17.20;99.90;;;;;;4980593;28;20074;-63
2023/08/01 11:03:02;;;;;;;1.05;0.15;;;17.00;99.90;;;;;;4985871;28;20423;-63
2023/08/01 11:05:29;;;;;;;0.05;0.00;;;17.10;99.90;;;;;;4980422;28;20495;-63
2023/08/01 11:08:03;;;;;;;0.93;0.15;;;17.60;99.90;;;;;;4974641;28;20046;-63
2023/08/01 11:10:30;;;;;;;1.33;0.20;;;18.10;99.90;;;;;;4988006;28;20491;-63
2023/08/01 11:12:57;;;;;;;0.05;0.05;;;18.50;99.90;;;;;;4979689;28;20043;-63
2023/08/01 11:15:23;;;;;;;0.00;0.00;;;18.50;99.90;;;;;;4975476;28;20129;-63
2023/08/01 11:17:54;;;;;;;0.10;0.10;;;18.40;99.90;;;;;;4978759;28;20092;-64
2023/08/01 11:20:22;;;;;;;0.30;0.10;;;18.20;99.90;;;;;;4984411;28;20419;-64
2023/08/01 11:23:04;;;;;;;0.00;0.00;;;17.90;99.90;;;;;;4986289;28;20069;-63
2023/08/01 11:25:43;;;;;;;0.05;0.05;;;17.70;99.90;;;;;;4981078;28;20057;-63
2023/08/01 11:28:12;;;;;;;0.00;0.00;;;17.50;99.90;;;;;;4983405;28;20101;-63
2023/08/01 11:30:38;;;;;;;0.00;0.00;;;17.50;99.90;;;;;;4985496;28;20030;-63
2023/08/01 11:33:33;;;;;;;0.00;0.00;;;17.60;99.90;;;;;;4977833;28;20035;-63
2023/08/01 11:36:01;;;;;;;0.10;0.00;;;17.60;99.90;;;;;;4972867;28;20046;-63
2023/08/01 11:38:29;;;;;;;0.00;0.00;;;17.50;99.90;;;;;;4979098;28;20416;-63
2023/08/01 11:40:57;;;;;;;0.13;0.00;;;17.60;99.90;;;;;;4982772;28;20085;-64
2023/08/01 11:43:23;;;;;;;0.10;0.00;;;17.70;99.90;;;;;;4976941;28;20126;-64
2023/08/01 11:45:54;;;;;;;0.30;0.13;;;18.00;99.90;;;;;;4983975;28;20146;-64
2023/08/01 11:48:24;;;;;;;0.00;0.00;;;18.30;99.90;;;;;;4987951;28;20038;-63
2023/08/01 11:51:00;;;;;;;0.45;0.00;;;18.40;99.90;;;;;;4982190;28;20121;-63
2023/08/01 11:53:27;;;;;;;0.35;0.10;;;18.30;99.90;;;;;;4988965;28;20129;-63
2023/08/01 11:55:56;;;;;;;0.00;0.00;;;18.00;99.90;;;;;;4988752;28;20042;-63
2023/08/01 11:58:32;;;;;;;1.45;0.20;;;17.70;99.90;;;;;;4985163;28;20050;-63
2023/08/01 12:01:13;;;;;;;0.15;0.08;;;17.50;99.90;;;;;;4986048;28;20513;-63
2023/08/01 12:04:05;;;;;;;1.02;0.20;;;17.50;99.90;;;;;;4988191;28;20391;-63
2023/08/01 12:06:33;;;;;;;0.20;0.05;;;17.60;99.90;;;;;;4982558;28;20057;-63
2023/08/01 12:09:10;;;;;;;0.00;0.00;;;17.70;99.90;;;;;;4984911;28;20478;-62
2023/08/01 12:11:36;;;;;;;0.30;0.00;;;17.70;99.90;;;;;;4984449;28;20420;-62
2023/08/01 12:14:13;;;;;;;0.00;0.00;;;17.70;99.90;;;;;;4980046;28;20501;-62
2023/08/01 12:16:46;;;;;;;0.08;0.00;;;18.10;99.90;;;;;;4984946;28;20478;-62
2023/08/01 12:19:19;;;;;;;0.20;0.05;;;18.30;99.90;;;;;;4985238;28;20046;-62
2023/08/01 12:21:45;;;;;;;0.38;0.25;;;18.50;99.90;;;;;;4984439;28;20112;-62
2023/08/01 12:24:11;;;;;;;0.22;0.10;;;18.90;99.90;;;;;;4987863;28;20476;-62
2023/08/01 12:26:36;;;;;;;0.20;0.10;;;19.30;99.90;;;;;;4981805;28;20096;-62
2023/08/01 12:29:02;;;;;;;0.10;0.10;;;19.50;99.90;;;;;;4983043;28;20042;-63
2023/08/01 12:31:28;;;;;;;0.15;0.10;;;19.30;99.90;;;;;;4980646;28;20593;-64
2023/08/01 12:33:54;;;;;;;0.10;0.10;;;18.90;99.90;;;;;;4984030;28;20538;-63
2023/08/01 12:37:00;;;;;;;0.57;0.10;;;18.40;99.90;;;;;;4980750;28;20568;-63
2023/08/01 12:39:26;;;;;;;0.10;0.10;;;18.00;99.90;;;;;;4982645;28;20082;-64
2023/08/01 12:41:53;;;;;;;0.10;0.10;;;17.60;99.90;;;;;;4979502;28;20050;-63
2023/08/01 12:44:20;;;;;;;1.75;0.25;;;17.50;99.90;;;;;;4977630;28;20034;-63
2023/08/01 12:46:45;;;;;;;0.13;0.00;;;17.40;99.90;;;;;;4982826;28;20427;-63